Time;durP1;ratioP1;P1;durP2;ratioP2;P2;SDS_P1;SDS_P2;PMS_P1;PMS_P2;Temp;Humidity;BMP_temperature;BMP_pressure;BME280_temperature;BME280_humidity;BME280_pressure;Samples;Min_cycle;Max_cycle;Signal;HPM_P1;HPM_P2
2023/07/11 00:01:06;;;;;;;7.15;4.47;;;27.30;99.90;;;;;;1921154;73;21526;-78
2023/07/11 00:06:36;;;;;;;7.85;4.75;;;27.40;99.90;;;;;;1937613;72;22708;-78
2023/07/11 00:12:08;;;;;;;5.35;4.55;;;27.00;99.90;;;;;;1934384;72;22152;-78
2023/07/11 00:14:59;;;;;;;10.15;4.65;;;26.90;99.90;;;;;;1887338;75;21566;-78
2023/07/11 00:17:51;;;;;;;7.10;4.95;;;26.70;99.90;;;;;;1884930;75;21126;-78
2023/07/11 00:20:42;;;;;;;7.58;5.15;;;26.70;99.90;;;;;;1880329;75;21099;-78
2023/07/11 00:23:34;;;;;;;9.50;5.12;;;26.70;99.90;;;;;;1889476;75;21110;-79
2023/07/11 00:26:25;;;;;;;8.65;4.80;;;26.70;99.90;;;;;;1888385;75;21157;-80
2023/07/11 00:31:57;;;;;;;5.87;4.40;;;26.40;99.90;;;;;;1940591;72;22626;-79
2023/07/11 00:34:49;;;;;;;6.60;4.22;;;26.30;99.90;;;;;;1891126;75;21571;-79
2023/07/11 00:37:40;;;;;;;7.05;4.20;;;26.30;99.90;;;;;;1911676;75;21657;-79
2023/07/11 00:40:32;;;;;;;8.65;4.72;;;26.20;99.90;;;;;;1905082;75;21160;-79
2023/07/11 00:43:23;;;;;;;7.53;4.55;;;26.20;99.90;;;;;;1904081;75;21106;-79
2023/07/11 00:46:18;;;;;;;6.62;4.35;;;26.20;99.90;;;;;;1900052;75;21130;-79
2023/07/11 00:49:12;;;;;;;6.20;4.47;;;26.20;99.90;;;;;;1900045;75;21146;-79
2023/07/11 00:52:04;;;;;;;8.73;4.80;;;26.20;99.90;;;;;;1887876;73;21102;-78
2023/07/11 00:54:59;;;;;;;6.83;4.83;;;26.20;99.90;;;;;;1887445;75;21102;-78
2023/07/11 00:57:50;;;;;;;6.53;4.50;;;26.20;99.90;;;;;;1909514;75;21179;-78
2023/07/11 01:00:42;;;;;;;5.85;4.47;;;26.20;99.90;;;;;;1914171;75;21184;-78
2023/07/11 01:03:33;;;;;;;4.85;4.12;;;26.20;99.90;;;;;;1906932;75;21675;-78
2023/07/11 01:06:27;;;;;;;9.65;4.78;;;26.20;99.90;;;;;;1891934;75;21110;-78
2023/07/11 01:11:59;;;;;;;7.67;4.30;;;26.10;99.90;;;;;;1940963;72;22145;-78
2023/07/11 01:14:51;;;;;;;8.78;4.33;;;26.20;99.90;;;;;;1908937;75;21173;-78
2023/07/11 01:17:42;;;;;;;8.88;4.75;;;26.10;99.90;;;;;;1893649;75;22014;-78
2023/07/11 01:20:34;;;;;;;8.05;4.22;;;26.10;99.90;;;;;;1888836;75;21139;-78
2023/07/11 01:26:05;;;;;;;9.10;4.95;;;26.20;99.90;;;;;;1933604;72;22166;-78
2023/07/11 01:28:58;;;;;;;4.60;3.60;;;26.20;99.90;;;;;;1895142;75;21123;-78
2023/07/11 01:34:29;;;;;;;8.13;4.22;;;26.20;99.90;;;;;;1949474;72;22248;-78
2023/07/11 01:37:22;;;;;;;8.60;4.33;;;26.20;99.90;;;;;;1892165;75;21787;-78
2023/07/11 01:40:15;;;;;;;6.53;4.17;;;26.20;99.90;;;;;;1899305;75;21163;-78
2023/07/11 01:43:06;;;;;;;8.85;4.47;;;26.20;99.90;;;;;;1896594;75;21184;-78
2023/07/11 01:45:57;;;;;;;6.97;4.40;;;26.20;99.90;;;;;;1899236;75;21110;-78
2023/07/11 01:48:51;;;;;;;8.48;5.15;;;26.20;99.90;;;;;;1897148;75;21113;-78
2023/07/11 01:51:45;;;;;;;9.08;4.55;;;26.20;99.90;;;;;;1886983;75;21084;-78
2023/07/11 01:54:36;;;;;;;7.12;4.25;;;26.10;99.90;;;;;;1887479;75;21110;-78
2023/07/11 01:57:27;;;;;;;7.58;4.60;;;26.10;99.90;;;;;;1902012;75;21101;-78
2023/07/11 02:00:19;;;;;;;7.80;4.55;;;26.00;99.90;;;;;;1890064;74;21184;-78
2023/07/11 02:03:16;;;;;;;5.47;4.30;;;26.10;99.90;;;;;;1900803;75;21597;-78
2023/07/11 02:06:07;;;;;;;9.53;4.58;;;26.10;99.90;;;;;;1888899;75;21113;-78
2023/07/11 02:09:02;;;;;;;7.20;4.55;;;26.00;99.90;;;;;;1912187;75;21179;-79
2023/07/11 02:14:32;;;;;;;8.65;4.70;;;25.90;99.90;;;;;;1939053;72;22309;-78
2023/07/11 02:20:02;;;;;;;5.53;4.20;;;26.00;99.90;;;;;;1943081;72;22242;-78
2023/07/11 02:22:53;;;;;;;6.42;4.50;;;26.00;99.90;;;;;;1917184;73;21125;-78
2023/07/11 02:28:28;;;;;;;7.70;4.37;;;25.70;99.90;;;;;;1936016;72;22121;-78
2023/07/11 02:31:19;;;;;;;7.55;4.80;;;25.50;99.90;;;;;;1902380;74;21105;-78
2023/07/11 02:34:10;;;;;;;11.57;5.03;;;25.50;99.90;;;;;;1886934;75;21143;-78
2023/07/11 02:37:02;;;;;;;7.30;4.70;;;25.60;99.90;;;;;;1888049;75;21417;-78
2023/07/11 02:39:53;;;;;;;8.80;5.15;;;25.50;99.90;;;;;;1883579;75;21109;-78
2023/07/11 02:42:45;;;;;;;7.22;5.00;;;25.50;99.90;;;;;;1884790;75;21090;-78
2023/07/11 02:45:55;;;;;;;8.58;4.83;;;25.60;99.90;;;;;;1898488;75;21098;-78
2023/07/11 02:48:47;;;;;;;7.37;4.42;;;25.50;99.90;;;;;;1899236;75;21098;-78
2023/07/11 02:51:39;;;;;;;6.47;4.20;;;25.50;99.90;;;;;;1893958;75;21090;-78
2023/07/11 02:54:30;;;;;;;6.20;4.67;;;25.60;99.90;;;;;;1902687;75;21689;-79
2023/07/11 02:57:21;;;;;;;6.55;4.25;;;25.70;99.90;;;;;;1901278;75;21535;-79
2023/07/11 03:00:14;;;;;;;8.30;4.58;;;25.60;99.90;;;;;;1892774;75;21152;-79
2023/07/11 03:03:05;;;;;;;8.93;5.03;;;25.60;99.90;;;;;;1893686;75;21122;-79
2023/07/11 03:05:57;;;;;;;10.10;4.45;;;25.60;99.90;;;;;;1898222;75;21135;-79
2023/07/11 03:08:49;;;;;;;6.42;4.15;;;25.60;99.90;;;;;;1895125;75;21091;-78
2023/07/11 03:11:41;;;;;;;7.33;4.80;;;25.60;99.90;;;;;;1905158;75;21611;-78
2023/07/11 03:17:16;;;;;;;7.40;4.15;;;25.50;99.90;;;;;;1930794;72;22089;-78
2023/07/11 03:20:10;;;;;;;6.15;4.28;;;25.50;99.90;;;;;;1917724;74;21535;-78
2023/07/11 03:23:01;;;;;;;8.68;4.60;;;25.60;99.90;;;;;;1903580;75;21155;-78
2023/07/11 03:26:10;;;;;;;4.70;4.12;;;25.60;99.90;;;;;;1900433;75;21434;-78
2023/07/11 03:29:01;;;;;;;9.55;4.90;;;25.60;99.90;;;;;;1904904;75;21101;-78
2023/07/11 03:34:32;;;;;;;7.30;5.10;;;25.50;99.90;;;;;;1939186;72;22244;-78
2023/07/11 03:37:23;;;;;;;9.03;5.30;;;25.50;99.90;;;;;;1893467;75;21102;-78
2023/07/11 03:40:15;;;;;;;8.83;4.92;;;25.60;99.90;;;;;;1888078;75;21131;-78
2023/07/11 03:43:06;;;;;;;6.25;4.80;;;25.50;99.90;;;;;;1897814;75;21106;-78
2023/07/11 03:45:57;;;;;;;9.30;4.95;;;25.50;99.90;;;;;;1902367;75;21105;-78
2023/07/11 03:48:48;;;;;;;6.47;4.50;;;25.50;99.90;;;;;;1893680;75;21138;-78
2023/07/11 03:51:40;;;;;;;6.42;5.12;;;25.50;99.90;;;;;;1901356;75;21590;-78
2023/07/11 03:57:12;;;;;;;7.25;4.65;;;25.40;99.90;;;;;;1928012;72;22177;-78
2023/07/11 04:00:03;;;;;;;7.45;5.55;;;25.40;99.90;;;;;;1881624;75;21176;-77
2023/07/11 04:02:56;;;;;;;6.67;4.90;;;25.30;99.90;;;;;;1884430;75;21118;-77
2023/07/11 04:05:49;;;;;;;8.88;4.45;;;25.30;99.90;;;;;;1887251;75;21113;-77
2023/07/11 04:08:40;;;;;;;6.10;4.67;;;25.20;99.90;;;;;;1891667;75;21113;-78
2023/07/11 04:11:32;;;;;;;8.43;5.00;;;25.20;99.90;;;;;;1898909;75;21062;-78
2023/07/11 04:17:02;;;;;;;7.22;4.97;;;25.30;99.90;;;;;;1945063;72;22239;-76
2023/07/11 04:19:54;;;;;;;9.08;5.00;;;25.30;99.90;;;;;;1921067;73;21121;-77
2023/07/11 04:22:45;;;;;;;6.70;4.67;;;25.20;99.90;;;;;;1916503;75;21168;-79
2023/07/11 04:25:36;;;;;;;7.90;4.78;;;25.10;99.90;;;;;;1916647;75;21558;-78
2023/07/11 04:28:30;;;;;;;6.35;4.95;;;25.10;99.90;;;;;;1924908;73;21641;-83
2023/07/11 04:31:22;;;;;;;8.00;4.95;;;25.20;99.90;;;;;;1917355;73;21091;-83
2023/07/11 04:36:58;;;;;;;8.63;5.97;;;25.10;99.90;;;;;;1919579;72;28805;-83
2023/07/11 04:39:49;;;;;;;8.13;5.35;;;25.30;99.90;;;;;;1907815;75;21110;-83
2023/07/11 04:45:20;;;;;;;6.58;4.87;;;25.40;99.90;;;;;;1925798;72;22173;-82
2023/07/11 04:50:58;;;;;;;7.53;5.00;;;25.40;99.90;;;;;;1935961;72;22619;-83
2023/07/11 04:53:49;;;;;;;7.13;5.57;;;25.50;99.90;;;;;;1880198;75;22031;-83
2023/07/11 04:56:42;;;;;;;7.03;5.08;;;25.50;99.90;;;;;;1875896;75;21391;-83
2023/07/11 05:02:17;;;;;;;6.42;4.62;;;25.70;99.90;;;;;;1934868;72;22281;-83
2023/07/11 05:05:10;;;;;;;7.60;5.20;;;25.70;99.90;;;;;;1901876;74;21097;-83
2023/07/11 05:08:01;;;;;;;7.80;4.72;;;25.70;99.90;;;;;;1899879;75;21613;-83
2023/07/11 05:11:01;;;;;;;6.83;4.85;;;25.60;99.90;;;;;;1911249;74;21111;-83
2023/07/11 05:13:53;;;;;;;7.55;4.87;;;25.70;99.90;;;;;;1892746;75;21207;-83
2023/07/11 05:19:25;;;;;;;6.92;4.60;;;25.70;99.90;;;;;;1937913;72;22185;-83
2023/07/11 05:22:16;;;;;;;8.78;4.50;;;25.70;99.90;;;;;;1900087;75;21172;-83
2023/07/11 05:25:10;;;;;;;8.53;4.75;;;25.80;99.90;;;;;;1906131;75;21099;-83
2023/07/11 05:28:01;;;;;;;6.33;4.80;;;25.90;99.90;;;;;;1897722;75;21609;-83
2023/07/11 05:30:55;;;;;;;7.47;4.95;;;25.90;99.90;;;;;;1894554;75;21081;-83
2023/07/11 05:33:51;;;;;;;9.80;5.00;;;25.90;99.90;;;;;;1909430;73;21091;-83
2023/07/11 05:39:21;;;;;;;7.40;5.40;;;25.80;99.90;;;;;;1919659;72;22176;-83
2023/07/11 05:44:51;;;;;;;7.95;4.60;;;25.80;99.90;;;;;;1949313;72;22205;-83
2023/07/11 05:47:43;;;;;;;8.48;4.85;;;25.80;99.90;;;;;;1902808;75;21169;-83
2023/07/11 05:50:34;;;;;;;8.25;4.97;;;25.90;99.90;;;;;;1900705;75;21127;-84
2023/07/11 05:56:06;;;;;;;7.05;4.62;;;25.90;99.90;;;;;;1940629;72;22182;-83
2023/07/11 05:58:59;;;;;;;7.78;4.60;;;26.00;99.90;;;;;;1924605;74;21191;-83
2023/07/11 06:01:51;;;;;;;10.65;4.83;;;26.10;99.90;;;;;;1904484;74;21174;-77
2023/07/11 06:07:23;;;;;;;7.83;5.00;;;26.20;99.90;;;;;;1946732;72;22204;-78
2023/07/11 06:10:15;;;;;;;9.93;5.15;;;26.30;99.90;;;;;;1922333;73;21163;-78
2023/07/11 06:13:06;;;;;;;7.05;4.78;;;26.30;99.90;;;;;;1931632;73;21175;-78
2023/07/11 06:16:03;;;;;;;6.83;5.00;;;26.40;99.90;;;;;;1916573;73;21153;-78
2023/07/11 06:18:56;;;;;;;7.78;4.50;;;26.40;99.90;;;;;;1927505;73;21989;-77
2023/07/11 06:24:28;;;;;;;6.42;4.65;;;26.50;99.90;;;;;;1943206;72;22173;-83
2023/07/11 06:27:33;;;;;;;11.28;4.85;;;26.50;99.90;;;;;;1890479;75;21143;-82
2023/07/11 06:30:25;;;;;;;8.38;5.03;;;26.60;99.90;;;;;;1907776;73;21633;-80
2023/07/11 06:33:17;;;;;;;6.80;5.00;;;26.60;99.90;;;;;;1884922;75;21195;-82
2023/07/11 06:36:10;;;;;;;7.47;4.95;;;26.60;99.90;;;;;;1893290;75;21174;-83
2023/07/11 06:39:01;;;;;;;8.28;4.87;;;26.70;99.90;;;;;;1896619;75;21116;-83
2023/07/11 06:44:32;;;;;;;11.00;5.17;;;26.60;99.90;;;;;;1924844;72;22590;-83
2023/07/11 06:47:24;;;;;;;6.92;4.72;;;26.70;99.90;;;;;;1898577;74;21297;-83
2023/07/11 06:52:54;;;;;;;7.92;4.70;;;26.80;99.90;;;;;;1943405;72;22179;-83
2023/07/11 06:55:48;;;;;;;9.25;5.05;;;26.90;99.90;;;;;;1889924;75;21109;-83
2023/07/11 06:58:39;;;;;;;7.28;4.75;;;27.00;99.90;;;;;;1870669;75;21087;-84
2023/07/11 07:01:31;;;;;;;11.38;4.95;;;26.90;99.90;;;;;;1872341;75;21589;-84
2023/07/11 07:07:03;;;;;;;8.78;4.85;;;27.10;99.90;;;;;;1944216;72;22167;-83
2023/07/11 07:09:55;;;;;;;8.45;4.80;;;27.20;99.90;;;;;;1916029;73;21204;-83
2023/07/11 07:12:46;;;;;;;9.00;5.30;;;27.30;99.90;;;;;;1923138;73;21105;-84
2023/07/11 07:15:48;;;;;;;13.20;5.17;;;27.40;99.90;;;;;;1938793;73;21121;-83
2023/07/11 07:21:25;;;;;;;7.92;5.10;;;27.40;99.90;;;;;;1940400;72;22157;-84
2023/07/11 07:24:16;;;;;;;7.03;5.05;;;27.50;99.90;;;;;;1912277;75;21105;-84
2023/07/11 07:27:10;;;;;;;7.40;5.00;;;27.50;99.90;;;;;;1887893;75;21578;-84
2023/07/11 07:30:03;;;;;;;6.53;4.50;;;27.50;99.90;;;;;;1908817;75;21114;-84
2023/07/11 07:32:58;;;;;;;9.98;5.05;;;27.60;99.90;;;;;;1896069;75;21100;-84
2023/07/11 07:35:50;;;;;;;7.42;4.83;;;27.70;99.90;;;;;;1919102;73;21203;-85
2023/07/11 07:38:41;;;;;;;8.00;5.10;;;27.80;99.90;;;;;;1893683;75;21106;-83
2023/07/11 07:41:33;;;;;;;11.22;4.90;;;27.90;99.90;;;;;;1872178;76;21130;-85
2023/07/11 08:00:12;;;;;;;11.12;5.33;;;28.60;99.90;;;;;;1935851;72;22944;-86
2023/07/11 08:08:24;;;;;;;7.40;5.53;;;28.60;99.90;;;;;;1940445;72;22121;-85
2023/07/11 08:11:17;;;;;;;8.05;4.83;;;28.70;99.90;;;;;;1912770;74;21093;-86
2023/07/11 08:14:08;;;;;;;6.87;5.17;;;28.70;99.90;;;;;;1912856;73;21031;-86
2023/07/11 08:19:51;;;;;;;9.00;5.67;;;28.80;99.90;;;;;;1968513;72;22233;-86
2023/07/11 08:22:43;;;;;;;10.30;5.28;;;28.90;99.90;;;;;;1932279;73;21064;-87
2023/07/11 08:25:36;;;;;;;7.58;4.47;;;29.00;99.90;;;;;;1930485;73;21090;-87
2023/07/11 08:28:28;;;;;;;8.63;5.28;;;29.10;99.90;;;;;;1925326;73;21352;-87
2023/07/11 08:31:20;;;;;;;7.30;5.22;;;29.20;99.90;;;;;;1937719;73;21225;-86
2023/07/11 08:34:12;;;;;;;8.03;5.00;;;29.30;99.90;;;;;;1920499;73;21165;-87
2023/07/11 08:37:04;;;;;;;10.05;5.08;;;29.30;99.90;;;;;;1919279;73;21477;-88
2023/07/11 08:39:56;;;;;;;8.23;4.62;;;29.40;99.90;;;;;;1916230;73;21554;-87
2023/07/11 08:42:48;;;;;;;6.60;4.70;;;29.50;99.90;;;;;;1920271;73;21164;-87
2023/07/11 08:45:42;;;;;;;7.08;5.17;;;29.60;99.90;;;;;;1934062;73;21195;-87
2023/07/11 08:48:36;;;;;;;10.45;5.22;;;29.80;99.90;;;;;;1916481;73;21649;-88
2023/07/11 08:51:31;;;;;;;8.60;4.55;;;29.80;99.90;;;;;;1916652;73;21570;-88
2023/07/11 08:54:27;;;;;;;7.28;4.92;;;29.90;99.90;;;;;;1930308;73;21550;-88
2023/07/11 09:00:09;;;;;;;8.13;4.50;;;30.10;99.90;;;;;;1928729;72;22232;-88
2023/07/11 09:03:04;;;;;;;6.97;5.03;;;30.20;99.90;;;;;;1897419;75;21120;-87
2023/07/11 09:06:00;;;;;;;6.37;4.78;;;30.20;99.90;;;;;;1905379;75;21168;-88
2023/07/11 09:08:54;;;;;;;9.58;5.30;;;30.30;99.90;;;;;;1900123;75;21542;-88
2023/07/11 09:11:48;;;;;;;6.92;5.22;;;30.40;99.90;;;;;;1881625;76;21172;-89
2023/07/11 09:14:47;;;;;;;7.83;5.12;;;30.40;99.90;;;;;;1868960;76;21106;-90
2023/07/11 09:20:27;;;;;;;11.25;5.35;;;30.50;99.90;;;;;;1941129;72;22177;-90
2023/07/11 09:26:06;;;;;;;9.73;5.40;;;30.60;99.90;;;;;;1943568;72;22697;-90
2023/07/11 09:29:03;;;;;;;10.90;5.33;;;30.60;99.90;;;;;;1929555;73;21121;-90
2023/07/11 09:34:40;;;;;;;8.53;5.05;;;30.60;99.90;;;;;;1929023;72;22205;-90
2023/07/11 09:37:34;;;;;;;8.58;5.45;;;30.70;99.90;;;;;;1897856;74;21107;-92
2023/07/11 09:40:31;;;;;;;6.83;5.03;;;30.80;99.90;;;;;;1888846;75;21126;-92
2023/07/11 09:43:22;;;;;;;8.20;5.30;;;30.90;99.90;;;;;;1891203;74;21149;-92
2023/07/11 09:46:17;;;;;;;9.03;5.40;;;30.90;99.90;;;;;;1894418;73;21090;-93
2023/07/11 12:12:09;;;;;;;12.50;4.72;;;34.00;99.90;;;;;;1823214;77;21108;-94
2023/07/11 12:15:02;;;;;;;10.05;4.33;;;34.10;99.90;;;;;;1814051;79;21202;-93
2023/07/11 12:17:54;;;;;;;8.80;4.35;;;34.20;99.40;;;;;;1818160;77;21097;-93
2023/07/11 12:21:04;;;;;;;12.47;4.15;;;34.30;99.70;;;;;;1815827;77;21160;-93
2023/07/11 12:23:57;;;;;;;7.55;4.03;;;34.50;98.90;;;;;;1817824;78;21174;-94
2023/07/11 12:26:52;;;;;;;8.75;4.37;;;34.50;98.50;;;;;;1816730;78;21196;-93
2023/07/11 12:29:51;;;;;;;8.83;4.22;;;34.70;98.70;;;;;;1827836;76;21204;-95
2023/07/11 12:32:48;;;;;;;8.35;4.60;;;34.70;98.50;;;;;;1826374;76;21178;-94
2023/07/11 13:21:21;;;;;;;6.37;4.28;;;35.40;98.60;;;;;;1943669;72;22324;-94
2023/07/11 13:24:16;;;;;;;8.85;4.53;;;35.40;97.80;;;;;;1893579;75;21213;-93
2023/07/11 13:27:12;;;;;;;10.05;4.37;;;35.30;98.70;;;;;;1886116;75;21588;-90
2023/07/11 13:30:03;;;;;;;7.30;4.60;;;35.40;98.70;;;;;;1892365;75;21168;-93
2023/07/11 13:32:56;;;;;;;12.78;4.37;;;35.20;97.60;;;;;;1880464;75;21115;-90
2023/07/11 13:35:57;;;;;;;9.03;4.62;;;35.30;97.70;;;;;;1903434;75;21056;-92
2023/07/11 13:38:52;;;;;;;10.15;4.80;;;35.40;97.60;;;;;;1873646;76;21122;-95
2023/07/11 13:41:48;;;;;;;7.70;4.15;;;35.60;98.10;;;;;;1872929;76;21095;-95
2023/07/11 13:44:41;;;;;;;9.75;4.50;;;35.70;97.20;;;;;;1883491;75;21204;-90
2023/07/11 13:47:40;;;;;;;6.78;4.30;;;35.80;97.00;;;;;;1887723;75;21147;-88
2023/07/11 13:54:43;;;;;;;9.90;4.30;;;35.90;97.40;;;;;;1988746;71;22181;-92
2023/07/11 13:57:35;;;;;;;10.75;5.08;;;36.10;97.50;;;;;;1918790;73;21585;-90
2023/07/11 14:00:27;;;;;;;8.78;4.80;;;36.30;97.00;;;;;;2025601;70;21066;-93
2023/07/11 14:03:21;;;;;;;10.98;4.75;;;36.40;97.40;;;;;;2007668;70;21030;-91
2023/07/11 14:06:16;;;;;;;9.80;4.37;;;36.60;97.20;;;;;;2007153;70;21123;-92
2023/07/11 14:09:09;;;;;;;10.08;4.83;;;36.90;96.50;;;;;;2018513;70;21110;-89
2023/07/11 14:12:22;;;;;;;9.60;4.50;;;37.10;95.70;;;;;;1994967;72;21030;-77
2023/07/11 14:15:56;;;;;;;8.28;4.60;;;37.20;95.60;;;;;;1979482;70;21228;-92
2023/07/11 14:18:58;;;;;;;9.47;4.40;;;37.40;95.90;;;;;;1918485;73;21848;-89
2023/07/11 14:21:58;;;;;;;8.65;4.90;;;37.40;95.90;;;;;;1995112;70;21232;-92
2023/07/11 14:24:49;;;;;;;8.80;4.72;;;37.00;96.10;;;;;;1998375;70;21076;-93
2023/07/11 14:27:42;;;;;;;10.50;4.97;;;36.80;97.00;;;;;;2019039;70;21174;-92
2023/07/11 14:30:33;;;;;;;7.20;4.45;;;36.70;97.60;;;;;;2016052;70;21069;-90
2023/07/11 14:33:31;;;;;;;10.60;4.85;;;36.90;97.80;;;;;;2016166;70;21074;-92
2023/07/11 14:36:22;;;;;;;11.22;4.80;;;37.10;97.50;;;;;;2019487;70;21122;-92
2023/07/11 14:39:14;;;;;;;12.47;4.65;;;37.30;97.00;;;;;;2019185;70;21625;-92
2023/07/11 14:42:10;;;;;;;6.95;4.40;;;37.60;96.80;;;;;;1995112;72;21217;-93
2023/07/11 14:45:01;;;;;;;9.43;4.85;;;37.50;97.00;;;;;;2007402;69;21079;-91
2023/07/11 14:47:54;;;;;;;7.92;4.75;;;37.60;96.60;;;;;;2006776;69;21065;-89
2023/07/11 14:50:47;;;;;;;10.75;4.67;;;37.70;96.00;;;;;;1996422;71;21096;-91
2023/07/11 14:53:41;;;;;;;10.10;4.80;;;38.20;95.10;;;;;;1997177;70;21355;-93
2023/07/11 14:56:32;;;;;;;11.08;5.10;;;38.70;94.50;;;;;;2031314;70;21110;-92
2023/07/11 14:59:27;;;;;;;9.83;4.80;;;39.20;93.80;;;;;;1999050;70;21041;-91
2023/07/11 15:02:22;;;;;;;7.75;4.90;;;38.30;94.20;;;;;;2007696;69;21057;-91
2023/07/11 15:05:18;;;;;;;9.70;4.72;;;37.70;95.00;;;;;;2001269;70;21089;-91
2023/07/11 15:08:16;;;;;;;12.68;5.53;;;38.00;95.70;;;;;;2022032;69;21335;-92
2023/07/11 15:11:14;;;;;;;15.13;5.17;;;38.30;95.30;;;;;;2022262;69;21120;-93
2023/07/11 15:14:13;;;;;;;11.68;5.33;;;38.80;94.70;;;;;;2025397;69;21132;-91
2023/07/11 15:17:09;;;;;;;11.60;5.42;;;39.20;94.10;;;;;;2033235;69;21148;-85
2023/07/11 15:20:02;;;;;;;;;;;39.20;93.50;;;;;;2032013;69;21068;-93
2023/07/11 15:22:56;;;;;;;10.95;5.00;;;38.60;94.20;;;;;;2007570;70;20182;-91
2023/07/11 15:25:48;;;;;;;9.65;4.90;;;38.70;94.20;;;;;;2007814;70;21099;-88
2023/07/11 15:34:40;;;;;;;9.93;5.08;;;38.30;94.00;;;;;;1863227;69;21069;-79
2023/07/11 15:41:08;;;;;;;12.75;5.30;;;36.80;95.30;;;;;;1949593;72;22153;-78
2023/07/11 15:44:01;;;;;;;9.13;5.08;;;36.80;95.20;;;;;;1883503;75;21123;-79
2023/07/11 15:46:52;;;;;;;10.58;5.35;;;37.70;94.20;;;;;;1871917;76;21111;-79
2023/07/11 15:49:47;;;;;;;11.10;4.92;;;38.80;93.10;;;;;;1886665;75;21377;-79
2023/07/11 15:52:38;;;;;;;11.83;4.85;;;38.80;91.40;;;;;;1888198;74;21253;-77
2023/07/11 15:55:33;;;;;;;10.05;4.87;;;38.80;91.40;;;;;;1881997;75;21171;-77
2023/07/11 15:58:26;;;;;;;8.95;5.20;;;39.60;90.80;;;;;;1898605;74;21626;-78
2023/07/11 16:01:23;;;;;;;8.58;5.25;;;40.00;90.60;;;;;;1906627;73;21105;-79
2023/07/11 16:04:16;;;;;;;11.85;5.33;;;38.90;90.40;;;;;;1884272;75;21169;-77
2023/07/11 16:09:52;;;;;;;9.38;5.37;;;37.70;92.60;;;;;;1950235;72;22134;-78
2023/07/11 16:12:44;;;;;;;12.58;5.58;;;38.20;92.60;;;;;;1916363;75;21164;-79
2023/07/11 16:15:36;;;;;;;12.15;5.03;;;38.20;92.30;;;;;;1929541;73;21146;-78
2023/07/11 16:18:30;;;;;;;12.47;5.60;;;38.60;92.30;;;;;;1943138;73;21183;-78
2023/07/11 16:21:21;;;;;;;12.03;5.33;;;39.50;91.40;;;;;;1924602;73;21562;-78
2023/07/11 16:24:15;;;;;;;11.93;4.60;;;40.30;90.50;;;;;;1935762;73;21099;-77
2023/07/11 16:27:15;;;;;;;7.58;4.90;;;40.60;88.30;;;;;;1916383;75;21103;-78
2023/07/11 16:30:08;;;;;;;12.70;5.28;;;40.20;89.80;;;;;;1919215;73;21177;-77
2023/07/11 16:32:59;;;;;;;9.63;4.95;;;39.80;90.10;;;;;;1916599;75;21114;-78
2023/07/11 16:35:53;;;;;;;13.18;5.33;;;39.40;90.30;;;;;;1919167;73;21514;-78
2023/07/11 16:38:45;;;;;;;14.45;5.28;;;39.00;90.30;;;;;;1959173;73;21082;-78
2023/07/11 16:41:37;;;;;;;8.50;4.95;;;38.90;90.30;;;;;;1932862;73;21094;-77
2023/07/11 16:44:28;;;;;;;10.15;4.95;;;39.20;90.10;;;;;;1936020;73;21086;-78
2023/07/11 16:47:20;;;;;;;10.78;5.70;;;38.90;90.30;;;;;;1939152;73;21172;-78
2023/07/11 16:50:21;;;;;;;11.93;5.15;;;38.70;90.50;;;;;;1916690;75;21134;-77
2023/07/11 16:53:25;;;;;;;8.80;5.20;;;39.00;90.20;;;;;;1916049;75;21729;-78
2023/07/11 16:56:17;;;;;;;10.82;5.65;;;39.40;90.00;;;;;;1916314;75;21114;-78
2023/07/11 16:59:14;;;;;;;13.53;5.72;;;39.70;90.00;;;;;;1889338;74;21066;-78
2023/07/11 17:02:17;;;;;;;10.93;5.60;;;40.50;88.10;;;;;;1921363;73;21102;-77
2023/07/11 17:05:09;;;;;;;13.22;5.80;;;40.60;85.40;;;;;;1916288;75;21134;-77
2023/07/11 17:08:01;;;;;;;11.05;5.37;;;40.80;84.30;;;;;;1916118;75;21100;-77
2023/07/11 17:10:53;;;;;;;15.08;5.50;;;40.90;81.90;;;;;;1917209;75;21329;-79
2023/07/11 17:13:44;;;;;;;11.60;5.17;;;40.50;83.00;;;;;;1925753;73;21200;-79
2023/07/11 17:16:39;;;;;;;9.38;4.47;;;39.70;82.30;;;;;;1921494;73;21196;-77
2023/07/11 17:19:33;;;;;;;8.20;4.55;;;38.80;78.40;;;;;;1916524;75;21105;-80
2023/07/11 17:22:25;;;;;;;8.95;4.95;;;38.70;78.90;;;;;;1916275;75;21090;-77
2023/07/11 17:25:19;;;;;;;12.20;5.25;;;38.60;81.70;;;;;;1916050;75;21098;-78
2023/07/11 17:28:16;;;;;;;12.40;5.42;;;38.20;85.70;;;;;;1915777;75;21102;-78
2023/07/11 17:31:09;;;;;;;15.15;5.67;;;37.70;87.40;;;;;;1938420;73;21083;-77
2023/07/11 17:34:01;;;;;;;10.00;5.10;;;37.00;89.80;;;;;;1915226;75;21254;-77
2023/07/11 17:36:53;;;;;;;10.63;4.87;;;36.90;89.60;;;;;;1880239;76;21177;-79
2023/07/11 17:39:45;;;;;;;13.00;4.83;;;36.80;88.10;;;;;;1928082;74;21170;-78
2023/07/11 17:42:37;;;;;;;13.13;5.20;;;37.10;85.90;;;;;;1915867;75;21152;-78
2023/07/11 17:45:28;;;;;;;14.50;5.72;;;36.80;89.20;;;;;;1915400;75;21151;-77
2023/07/11 17:48:23;;;;;;;14.30;5.55;;;36.20;90.60;;;;;;1915062;75;21121;-78
2023/07/11 17:51:15;;;;;;;13.98;6.37;;;35.70;91.70;;;;;;1915392;75;21058;-78
2023/07/11 17:54:08;;;;;;;18.87;6.15;;;35.30;92.20;;;;;;1886644;75;21151;-78
2023/07/11 17:56:59;;;;;;;18.70;5.83;;;34.90;92.70;;;;;;1923402;73;21164;-78
2023/07/11 17:59:51;;;;;;;16.10;6.17;;;34.60;93.40;;;;;;1920334;73;21058;-78
2023/07/11 18:02:44;;;;;;;22.25;6.60;;;34.60;93.00;;;;;;1880029;76;21091;-78
2023/07/11 18:05:38;;;;;;;22.30;5.92;;;34.30;93.50;;;;;;1938549;73;21129;-78
2023/07/11 18:08:29;;;;;;;21.85;6.22;;;34.30;93.70;;;;;;1915888;75;21055;-77
2023/07/11 18:11:21;;;;;;;25.15;7.17;;;34.00;93.90;;;;;;1923923;74;21177;-78
2023/07/11 18:14:12;;;;;;;22.20;6.97;;;33.40;94.10;;;;;;1925487;74;21613;-78
2023/07/11 18:17:04;;;;;;;28.98;7.35;;;33.30;93.90;;;;;;1938034;73;21159;-78
2023/07/11 18:19:56;;;;;;;30.20;7.00;;;33.20;94.10;;;;;;1883191;75;21141;-77
2023/07/11 18:22:49;;;;;;;28.65;7.17;;;33.00;93.80;;;;;;1915858;75;21095;-78
2023/07/11 18:25:42;;;;;;;22.93;6.95;;;32.90;93.80;;;;;;1915725;75;21106;-78
2023/07/11 18:28:33;;;;;;;25.65;6.60;;;33.00;93.80;;;;;;1885859;75;21192;-78
2023/07/11 18:31:24;;;;;;;31.15;7.12;;;32.80;93.90;;;;;;1916002;75;21106;-79
2023/07/11 18:34:16;;;;;;;29.60;7.15;;;32.50;94.20;;;;;;1878955;76;21105;-78
2023/07/11 18:37:10;;;;;;;28.80;6.83;;;32.30;94.50;;;;;;1922399;74;21103;-79
2023/07/11 18:40:01;;;;;;;27.58;7.03;;;32.30;94.70;;;;;;1916188;75;21535;-79
2023/07/11 18:42:53;;;;;;;28.52;6.83;;;32.30;94.90;;;;;;1916016;75;21554;-79
2023/07/11 18:45:47;;;;;;;31.60;6.80;;;32.10;95.00;;;;;;1879168;76;21101;-78
2023/07/11 18:48:38;;;;;;;25.43;6.53;;;32.10;95.10;;;;;;1921390;74;21085;-78
2023/07/11 18:51:30;;;;;;;24.45;5.58;;;32.10;94.90;;;;;;1915973;75;21606;-78
2023/07/11 18:54:21;;;;;;;24.37;6.37;;;32.00;95.20;;;;;;1878888;76;21106;-77
2023/07/11 18:57:17;;;;;;;28.87;7.20;;;31.90;95.60;;;;;;1915808;75;21107;-78
2023/07/11 19:00:22;;;;;;;27.25;6.12;;;31.90;95.70;;;;;;1879091;75;21135;-77
2023/07/11 19:03:13;;;;;;;27.35;6.15;;;31.90;95.80;;;;;;1887363;75;21093;-78
2023/07/11 19:06:09;;;;;;;30.20;6.00;;;31.80;96.00;;;;;;1932194;73;21174;-78
2023/07/11 19:09:01;;;;;;;24.95;6.58;;;31.70;96.20;;;;;;1915793;75;21058;-78
2023/07/11 19:11:52;;;;;;;24.27;5.85;;;31.50;96.60;;;;;;1908184;74;21197;-78
2023/07/11 19:14:44;;;;;;;20.90;5.08;;;31.40;96.80;;;;;;1905676;74;21197;-78
2023/07/11 19:17:38;;;;;;;27.22;4.75;;;31.30;96.90;;;;;;1867042;77;21114;-77
2023/07/11 19:20:32;;;;;;;16.73;4.33;;;31.10;97.20;;;;;;1835293;78;21159;-77
2023/07/11 19:23:25;;;;;;;25.50;5.97;;;31.00;97.40;;;;;;1862273;77;21130;-78
2023/07/11 19:26:18;;;;;;;18.42;4.33;;;30.80;97.80;;;;;;1938357;73;21110;-77
2023/07/11 19:29:12;;;;;;;24.18;5.65;;;30.80;98.00;;;;;;1917274;74;21106;-77
2023/07/11 19:32:07;;;;;;;13.18;3.45;;;30.60;98.20;;;;;;1915580;75;21175;-77
2023/07/11 19:34:58;;;;;;;26.30;6.22;;;30.50;98.50;;;;;;1902754;75;21138;-78
2023/07/11 19:37:52;;;;;;;28.12;5.78;;;30.30;98.90;;;;;;1903696;75;21060;-78
2023/07/11 19:40:43;;;;;;;24.55;4.30;;;30.20;99.20;;;;;;1867289;77;21155;-77
2023/07/11 19:43:35;;;;;;;26.23;6.15;;;30.10;99.40;;;;;;1881069;75;21098;-77
2023/07/11 19:46:26;;;;;;;22.27;4.85;;;30.00;99.80;;;;;;1917316;74;21157;-78
2023/07/11 19:49:17;;;;;;;32.35;5.40;;;29.80;99.90;;;;;;1918847;73;21139;-78
2023/07/11 19:52:11;;;;;;;20.52;4.08;;;29.90;99.90;;;;;;1925737;74;21056;-77
2023/07/11 19:55:02;;;;;;;26.12;5.50;;;29.80;99.90;;;;;;1924672;74;21091;-79
2023/07/11 19:57:55;;;;;;;16.62;4.17;;;29.70;99.90;;;;;;1903332;75;21088;-78
2023/07/11 20:00:48;;;;;;;24.05;4.12;;;29.50;99.90;;;;;;1896037;75;21511;-78
2023/07/11 20:03:39;;;;;;;26.75;5.28;;;29.40;99.90;;;;;;1860920;76;21674;-77
2023/07/11 20:06:31;;;;;;;20.48;4.72;;;29.40;99.90;;;;;;1837224;77;21796;-78
2023/07/11 20:09:23;;;;;;;16.75;4.53;;;29.30;99.90;;;;;;1921151;73;21126;-77